Terminal Aerodrome Forecast
Issued by NWS

Home | Current Version | Previous Version | Text Only | Print | Product List | Glossary On
Versions: 1 2 3 4 5 6 7 8 9 10 11 12 13
000
FTUS45 KRIW 231700
TAFBPI
TAF
KBPI 231722Z 2318/2418 VRB04KT P6SM SCT060
     FM231900 30011KT P6SM FEW070
     FM240200 35005KT P6SM SKC=

USA.gov is the U.S. government's official web portal to all federal, state and local government web resources and services.